Time;durP1;ratioP1;P1;durP2;ratioP2;P2;SDS_P1;SDS_P2;PMS_P1;PMS_P2;Temp;Humidity;BMP_temperature;BMP_pressure;BME280_temperature;BME280_humidity;BME280_pressure;Samples;Min_cycle;Max_cycle;Signal;HPM_P1;HPM_P2
2021/03/22 00:00:23;;;;;;;9.13;2.30;;;19.80;44.30;;;;;;5047952;28;21695;-72
2021/03/22 00:02:50;;;;;;;8.87;2.67;;;19.80;44.30;;;;;;5050465;28;20487;-72
2021/03/22 00:05:16;;;;;;;7.23;2.40;;;19.80;44.20;;;;;;5046532;28;20479;-73
2021/03/22 00:07:43;;;;;;;7.37;2.10;;;19.80;44.20;;;;;;5040602;28;20484;-72
2021/03/22 00:10:10;;;;;;;8.00;2.67;;;19.80;44.30;;;;;;5017170;28;20499;-72
2021/03/22 00:12:36;;;;;;;6.80;2.10;;;19.80;45.10;;;;;;5032839;28;20529;-73
2021/03/22 00:15:03;;;;;;;5.00;1.87;;;19.70;44.20;;;;;;5057787;28;20478;-71
2021/03/22 00:17:29;;;;;;;8.07;2.97;;;19.70;44.20;;;;;;5057119;28;20541;-72
2021/03/22 00:19:56;;;;;;;8.17;2.57;;;19.70;44.10;;;;;;5032567;28;20489;-73
2021/03/22 00:22:22;;;;;;;3.60;1.90;;;19.70;44.00;;;;;;5061781;28;20470;-72
2021/03/22 00:24:49;;;;;;;10.73;3.00;;;19.80;44.10;;;;;;5056577;28;20478;-73
2021/03/22 00:27:15;;;;;;;6.07;2.50;;;19.70;43.90;;;;;;5054001;28;20599;-73
2021/03/22 00:29:41;;;;;;;4.70;2.23;;;19.70;43.90;;;;;;5044073;28;20595;-72
2021/03/22 00:32:08;;;;;;;5.60;2.40;;;19.70;43.90;;;;;;5035650;28;20469;-72
2021/03/22 00:34:34;;;;;;;9.43;3.07;;;19.70;43.90;;;;;;5038610;28;20476;-71
2021/03/22 00:37:01;;;;;;;5.93;2.17;;;19.70;43.90;;;;;;5052077;28;20891;-71
2021/03/22 00:39:27;;;;;;;6.00;2.97;;;19.70;43.80;;;;;;5049401;28;20483;-72
2021/03/22 00:41:53;;;;;;;4.63;2.73;;;19.70;43.90;;;;;;5051018;28;20485;-71
2021/03/22 00:44:20;;;;;;;5.90;2.37;;;19.70;43.90;;;;;;5077194;28;21327;-72
2021/03/22 00:46:46;;;;;;;3.73;1.90;;;19.70;44.00;;;;;;5054453;28;20477;-72
2021/03/22 00:49:12;;;;;;;3.90;1.70;;;19.70;44.00;;;;;;5047877;28;20518;-71
2021/03/22 00:51:38;;;;;;;4.27;2.63;;;19.70;44.00;;;;;;5054571;28;20520;-72
2021/03/22 00:54:05;;;;;;;7.23;2.87;;;19.70;43.90;;;;;;5054105;28;20570;-72
2021/03/22 00:56:32;;;;;;;7.30;2.30;;;19.70;44.00;;;;;;5051769;28;21909;-72
2021/03/22 00:58:58;;;;;;;5.60;1.93;;;19.70;43.80;;;;;;5041732;28;20480;-73
2021/03/22 01:01:24;;;;;;;7.40;2.27;;;19.70;43.90;;;;;;5043933;28;20474;-72
2021/03/22 01:03:50;;;;;;;6.63;1.73;;;19.60;43.80;;;;;;5026389;28;20532;-72
2021/03/22 01:06:16;;;;;;;8.80;2.57;;;19.60;43.70;;;;;;5050086;28;20533;-72
2021/03/22 01:08:42;;;;;;;4.10;2.00;;;19.70;43.80;;;;;;5066145;28;20484;-71
2021/03/22 01:11:10;;;;;;;3.43;1.87;;;19.70;43.70;;;;;;5027167;28;20505;-71
2021/03/22 01:13:40;;;;;;;5.20;1.87;;;19.70;43.70;;;;;;5044471;28;20466;-73
2021/03/22 01:16:06;;;;;;;4.87;2.47;;;19.70;43.70;;;;;;5046943;28;20479;-71
2021/03/22 01:18:34;;;;;;;5.87;2.17;;;19.70;43.50;;;;;;5054346;28;20505;-72
2021/03/22 01:21:03;;;;;;;4.00;1.77;;;19.70;43.50;;;;;;5054065;28;20838;-71
2021/03/22 01:23:30;;;;;;;4.40;1.97;;;19.70;43.50;;;;;;5048342;28;20478;-71
2021/03/22 01:25:56;;;;;;;5.10;1.83;;;19.70;43.40;;;;;;5053010;28;20485;-72
2021/03/22 01:28:23;;;;;;;4.70;3.00;;;19.70;43.30;;;;;;5054074;28;20481;-72
2021/03/22 01:30:51;;;;;;;6.47;2.10;;;19.70;43.40;;;;;;5050299;28;20908;-71
2021/03/22 01:33:18;;;;;;;5.30;1.87;;;19.70;43.40;;;;;;5050220;28;20989;-71
2021/03/22 01:35:44;;;;;;;7.67;2.23;;;19.70;43.40;;;;;;5055426;28;20489;-72
2021/03/22 01:38:10;;;;;;;4.40;2.30;;;19.70;43.30;;;;;;5053178;28;20473;-72
2021/03/22 01:40:47;;;;;;;3.33;2.60;;;19.80;43.30;;;;;;5057563;28;20481;-72
2021/03/22 01:43:17;;;;;;;6.97;2.20;;;19.80;43.20;;;;;;5049592;28;20484;-71
2021/03/22 01:45:44;;;;;;;8.67;2.00;;;19.80;43.20;;;;;;5053892;28;20496;-72
2021/03/22 01:48:10;;;;;;;9.80;1.90;;;19.70;43.10;;;;;;5047532;28;20497;-72
2021/03/22 01:50:36;;;;;;;4.50;2.23;;;19.70;43.10;;;;;;5056923;28;20473;-72
2021/03/22 01:53:02;;;;;;;4.93;2.30;;;19.70;43.10;;;;;;5056265;28;20478;-72
2021/03/22 01:55:28;;;;;;;7.17;1.87;;;19.70;43.10;;;;;;5059673;28;20527;-72
2021/03/22 01:57:55;;;;;;;10.63;3.10;;;19.70;43.10;;;;;;5054835;28;20485;-72
2021/03/22 02:00:26;;;;;;;7.47;2.43;;;19.70;43.10;;;;;;5063851;28;20497;-72
2021/03/22 02:02:55;;;;;;;12.30;2.40;;;19.70;43.10;;;;;;5053478;28;20989;-73
2021/03/22 02:05:23;;;;;;;5.67;2.30;;;19.70;43.00;;;;;;5055376;28;20485;-72
2021/03/22 02:07:52;;;;;;;11.10;2.13;;;19.70;43.10;;;;;;5057792;28;20481;-72
2021/03/22 02:10:18;;;;;;;10.10;2.17;;;19.70;43.10;;;;;;5055210;28;20485;-72
2021/03/22 02:12:44;;;;;;;6.23;2.07;;;19.70;43.00;;;;;;5055367;28;20593;-72
2021/03/22 02:15:11;;;;;;;4.10;1.80;;;19.60;42.90;;;;;;5054647;28;20477;-73
2021/03/22 02:17:41;;;;;;;3.10;2.20;;;19.60;42.90;;;;;;5049707;28;20474;-73
2021/03/22 02:20:40;;;;;;;3.90;1.90;;;19.60;42.80;;;;;;5077529;28;20470;-72
2021/03/22 02:23:42;;;;;;;7.10;2.00;;;19.60;42.80;;;;;;5051864;28;20477;-73
2021/03/22 02:26:18;;;;;;;7.60;2.10;;;19.70;42.80;;;;;;5052321;28;21008;-73
2021/03/22 02:28:57;;;;;;;5.27;2.17;;;19.70;42.90;;;;;;5058031;28;20500;-73
2021/03/22 02:31:40;;;;;;;3.87;2.23;;;19.70;42.70;;;;;;5067397;28;20539;-73
2021/03/22 02:34:14;;;;;;;8.20;1.77;;;19.70;42.60;;;;;;5073037;28;20474;-74
2021/03/22 02:36:56;;;;;;;8.17;2.10;;;19.70;42.60;;;;;;5062685;28;20465;-74
2021/03/22 02:39:22;;;;;;;4.70;2.20;;;19.70;42.50;;;;;;5049396;28;20471;-73
2021/03/22 02:41:49;;;;;;;4.77;1.97;;;19.70;42.40;;;;;;5055938;28;20569;-73
2021/03/22 02:44:19;;;;;;;8.70;2.47;;;19.70;42.50;;;;;;5050784;28;20822;-72
2021/03/22 02:46:45;;;;;;;6.57;1.97;;;19.70;42.50;;;;;;5051218;28;20492;-73
2021/03/22 02:49:14;;;;;;;6.67;2.00;;;19.70;42.50;;;;;;5058540;28;20482;-72
2021/03/22 02:51:55;;;;;;;5.20;1.90;;;19.70;42.50;;;;;;5045991;28;20555;-73
2021/03/22 02:54:24;;;;;;;12.40;2.50;;;19.70;42.60;;;;;;5044887;28;20469;-72
2021/03/22 02:56:54;;;;;;;19.70;2.30;;;19.70;42.50;;;;;;5048555;28;20481;-73
2021/03/22 02:59:21;;;;;;;2.60;1.87;;;19.70;42.60;;;;;;5055311;28;20846;-72
2021/03/22 03:01:49;;;;;;;5.33;1.77;;;19.60;42.50;;;;;;5052177;28;20474;-73
2021/03/22 03:04:16;;;;;;;3.17;1.83;;;19.60;42.50;;;;;;5053976;28;20485;-73
2021/03/22 03:06:48;;;;;;;7.13;2.30;;;19.60;42.50;;;;;;5055046;28;20469;-72
2021/03/22 03:09:14;;;;;;;6.07;2.10;;;19.60;42.60;;;;;;5054732;28;20477;-73
2021/03/22 03:11:40;;;;;;;6.80;2.10;;;19.60;42.50;;;;;;5041536;28;20479;-73
2021/03/22 03:14:06;;;;;;;8.40;2.23;;;19.60;42.50;;;;;;5073644;28;20507;-73
2021/03/22 03:16:33;;;;;;;5.33;2.70;;;19.60;42.50;;;;;;5053048;28;21063;-72
2021/03/22 03:18:59;;;;;;;4.33;2.37;;;19.60;42.50;;;;;;5049144;28;20518;-73
2021/03/22 03:21:26;;;;;;;4.00;2.13;;;19.60;42.50;;;;;;5047100;28;20551;-73
2021/03/22 03:23:52;;;;;;;6.27;1.77;;;19.60;42.40;;;;;;5053374;28;20563;-71
2021/03/22 03:26:18;;;;;;;5.60;1.77;;;19.60;42.30;;;;;;5056629;28;20477;-72
2021/03/22 03:28:45;;;;;;;8.23;2.50;;;19.70;42.30;;;;;;5052332;28;20869;-73
2021/03/22 03:31:11;;;;;;;4.20;1.63;;;19.70;42.40;;;;;;5056837;28;20478;-73
2021/03/22 03:33:37;;;;;;;6.10;2.37;;;19.70;42.20;;;;;;5050815;28;20482;-73
2021/03/22 03:36:04;;;;;;;7.17;2.10;;;19.70;42.20;;;;;;5058230;28;20819;-71
2021/03/22 03:38:31;;;;;;;3.37;1.93;;;19.70;42.20;;;;;;5052175;28;20487;-72
2021/03/22 03:40:57;;;;;;;2.97;1.63;;;19.70;42.30;;;;;;5041565;28;21411;-73
2021/03/22 03:43:23;;;;;;;7.70;2.60;;;19.70;42.30;;;;;;5052937;28;20474;-73
2021/03/22 03:45:50;;;;;;;3.73;1.90;;;19.70;42.30;;;;;;5053617;28;20485;-73
2021/03/22 03:48:18;;;;;;;9.63;2.17;;;19.60;42.30;;;;;;5048757;28;20556;-72
2021/03/22 03:50:44;;;;;;;7.53;1.90;;;19.70;42.40;;;;;;5052569;28;20477;-73
2021/03/22 03:53:10;;;;;;;7.07;2.10;;;19.60;42.30;;;;;;5052256;28;20580;-72
2021/03/22 03:55:37;;;;;;;4.03;1.67;;;19.60;42.30;;;;;;5053861;28;20478;-73
2021/03/22 03:58:03;;;;;;;6.80;1.70;;;19.60;42.30;;;;;;5055647;28;20989;-72
2021/03/22 04:00:32;;;;;;;6.47;1.90;;;19.60;42.30;;;;;;5052625;28;20489;-72
2021/03/22 04:02:58;;;;;;;6.47;2.57;;;19.60;42.20;;;;;;5042466;28;21074;-72
2021/03/22 04:05:26;;;;;;;9.77;2.37;;;19.60;42.30;;;;;;5052505;28;20478;-73
2021/03/22 04:07:52;;;;;;;4.83;1.97;;;19.60;42.30;;;;;;5037704;28;21453;-72
2021/03/22 04:10:18;;;;;;;7.70;2.03;;;19.60;42.40;;;;;;5051373;28;20527;-72
2021/03/22 04:12:45;;;;;;;6.40;2.67;;;19.70;42.40;;;;;;5052294;28;20477;-73
2021/03/22 04:15:13;;;;;;;9.13;2.67;;;19.70;42.40;;;;;;5048364;28;21059;-72
2021/03/22 04:17:39;;;;;;;7.60;2.13;;;19.70;42.40;;;;;;5057126;28;20488;-73
2021/03/22 04:20:06;;;;;;;7.87;2.30;;;19.70;42.40;;;;;;5054094;28;20544;-73
2021/03/22 04:22:32;;;;;;;2.63;1.87;;;19.80;42.50;;;;;;5057146;28;20478;-72
2021/03/22 04:24:59;;;;;;;3.50;1.87;;;19.80;42.50;;;;;;5052746;28;20470;-72
2021/03/22 04:27:25;;;;;;;4.47;1.63;;;19.80;42.50;;;;;;5054358;28;20493;-72
2021/03/22 04:29:52;;;;;;;14.23;2.47;;;19.90;42.50;;;;;;5052624;28;20489;-72
2021/03/22 04:32:18;;;;;;;8.67;2.40;;;19.90;42.40;;;;;;5056159;28;20533;-71
2021/03/22 04:34:44;;;;;;;6.10;1.77;;;19.90;42.40;;;;;;5050532;28;21024;-72
2021/03/22 04:37:10;;;;;;;3.43;1.70;;;19.90;42.30;;;;;;5051633;28;20531;-72
2021/03/22 04:39:36;;;;;;;4.20;1.93;;;19.90;42.30;;;;;;5052276;28;20540;-72
2021/03/22 04:42:03;;;;;;;4.77;2.20;;;19.80;42.30;;;;;;5053700;28;20478;-72
2021/03/22 04:44:29;;;;;;;8.13;2.33;;;19.80;42.40;;;;;;5050131;28;20490;-72
2021/03/22 04:46:56;;;;;;;2.97;2.00;;;19.80;42.50;;;;;;5054693;28;20493;-72
2021/03/22 04:49:22;;;;;;;4.70;2.47;;;19.70;43.20;;;;;;5049983;28;20485;-70
2021/03/22 04:51:48;;;;;;;9.83;2.10;;;19.70;42.60;;;;;;5052534;28;20486;-72
2021/03/22 04:54:15;;;;;;;3.00;1.57;;;19.60;42.60;;;;;;5054538;28;20473;-72
2021/03/22 04:56:41;;;;;;;6.27;2.23;;;19.60;42.80;;;;;;5053588;28;20542;-72
2021/03/22 04:59:07;;;;;;;11.20;1.80;;;19.50;42.80;;;;;;5053231;28;20497;-71
2021/03/22 05:01:33;;;;;;;3.47;1.70;;;19.50;42.80;;;;;;5055291;28;20485;-73
2021/03/22 05:04:00;;;;;;;5.90;2.20;;;19.50;42.80;;;;;;5041087;28;20490;-72
2021/03/22 05:06:26;;;;;;;2.50;1.33;;;19.50;42.90;;;;;;5071280;28;20551;-71
2021/03/22 05:08:52;;;;;;;11.33;2.67;;;19.50;42.90;;;;;;5051945;28;20492;-72
2021/03/22 05:11:18;;;;;;;4.90;2.03;;;19.50;42.90;;;;;;5061339;28;20841;-72
2021/03/22 05:13:45;;;;;;;4.30;1.80;;;19.50;42.90;;;;;;5050801;28;20952;-72
2021/03/22 05:16:13;;;;;;;3.40;1.73;;;19.50;42.90;;;;;;5058731;28;20833;-73
2021/03/22 05:18:39;;;;;;;4.63;2.00;;;19.50;42.90;;;;;;5055553;28;20469;-73
2021/03/22 05:21:06;;;;;;;4.80;1.30;;;19.50;42.80;;;;;;5058637;28;20485;-73
2021/03/22 05:23:33;;;;;;;5.93;1.80;;;19.50;42.70;;;;;;5051682;28;20481;-72
2021/03/22 05:25:59;;;;;;;5.17;1.73;;;19.50;42.80;;;;;;5062827;28;20511;-73
2021/03/22 05:28:27;;;;;;;3.27;1.80;;;19.50;42.80;;;;;;5069648;28;20485;-72
2021/03/22 05:30:53;;;;;;;5.43;1.50;;;19.60;42.70;;;;;;5062142;28;20481;-72
2021/03/22 05:33:20;;;;;;;4.97;1.90;;;19.60;42.70;;;;;;5052726;28;21220;-73
2021/03/22 05:35:47;;;;;;;4.67;1.90;;;19.70;42.40;;;;;;5054207;28;21898;-73
2021/03/22 05:38:13;;;;;;;3.13;2.20;;;19.80;42.50;;;;;;5054579;28;20478;-72
2021/03/22 05:40:41;;;;;;;6.60;1.57;;;19.70;42.40;;;;;;5058242;28;20531;-73
2021/03/22 05:43:13;;;;;;;6.60;1.70;;;19.60;42.50;;;;;;5047512;28;21011;-73
2021/03/22 05:45:54;;;;;;;5.30;1.80;;;19.70;42.30;;;;;;5048771;28;20543;-72
2021/03/22 05:48:33;;;;;;;7.67;2.20;;;19.70;42.40;;;;;;5060777;28;20472;-73
2021/03/22 05:51:06;;;;;;;5.73;2.60;;;19.80;42.40;;;;;;5045858;28;21619;-72
2021/03/22 05:53:39;;;;;;;3.23;2.00;;;19.80;42.40;;;;;;5054198;28;20973;-71
2021/03/22 05:56:05;;;;;;;4.30;1.97;;;19.80;42.50;;;;;;5052788;28;20480;-72
2021/03/22 05:58:42;;;;;;;10.27;2.00;;;19.80;42.60;;;;;;5057267;28;20506;-72
2021/03/22 06:01:30;;;;;;;5.87;2.50;;;19.80;42.70;;;;;;5043969;28;20481;-72
2021/03/22 06:03:58;;;;;;;4.93;1.97;;;19.80;42.80;;;;;;5054079;28;20477;-72
2021/03/22 06:06:26;;;;;;;3.70;1.63;;;19.90;43.00;;;;;;5058501;28;20482;-72
2021/03/22 06:08:55;;;;;;;7.60;1.93;;;19.80;42.90;;;;;;5055993;28;20482;-72
2021/03/22 06:11:29;;;;;;;3.10;1.73;;;19.80;42.90;;;;;;5047935;28;21123;-72
2021/03/22 06:13:58;;;;;;;5.13;1.60;;;19.90;42.90;;;;;;5048534;28;20490;-71
2021/03/22 06:16:26;;;;;;;4.10;1.60;;;19.90;43.00;;;;;;5058734;28;20482;-72
2021/03/22 06:18:57;;;;;;;8.73;1.80;;;19.90;42.90;;;;;;5053982;28;20493;-72
2021/03/22 06:21:24;;;;;;;3.83;1.83;;;20.00;42.80;;;;;;5051206;28;20481;-72
2021/03/22 06:23:50;;;;;;;3.33;2.10;;;20.00;42.70;;;;;;5047215;28;20487;-72
2021/03/22 06:26:39;;;;;;;5.60;1.40;;;20.10;42.70;;;;;;5079038;28;20519;-72
2021/03/22 06:29:11;;;;;;;3.60;1.37;;;20.10;42.70;;;;;;5028399;28;20491;-72
2021/03/22 06:31:39;;;;;;;5.20;2.07;;;20.10;42.80;;;;;;5043047;28;20474;-71
2021/03/22 06:34:06;;;;;;;2.37;1.73;;;20.00;42.80;;;;;;5056235;28;20477;-72
2021/03/22 06:36:32;;;;;;;2.70;1.90;;;20.00;42.90;;;;;;5059057;28;21124;-70
2021/03/22 06:38:59;;;;;;;2.53;1.63;;;20.00;43.00;;;;;;5063037;28;20473;-73
2021/03/22 06:41:31;;;;;;;5.57;1.77;;;19.90;43.00;;;;;;5062041;28;20486;-71
2021/03/22 06:43:58;;;;;;;5.83;1.87;;;19.90;43.00;;;;;;5062731;28;20492;-72
2021/03/22 06:46:24;;;;;;;4.00;1.80;;;19.90;43.00;;;;;;5052551;28;20888;-72
2021/03/22 06:48:57;;;;;;;4.47;2.10;;;19.80;42.80;;;;;;5069821;28;20945;-72
2021/03/22 06:51:23;;;;;;;3.97;2.07;;;19.80;42.90;;;;;;5086137;28;20469;-72
2021/03/22 06:53:51;;;;;;;4.70;1.80;;;19.80;42.90;;;;;;5073845;28;20485;-72
2021/03/22 06:56:22;;;;;;;7.00;1.93;;;19.80;42.80;;;;;;5052746;28;20489;-72
2021/03/22 06:58:51;;;;;;;5.03;2.10;;;19.80;42.70;;;;;;5050600;28;20478;-72
2021/03/22 07:01:28;;;;;;;6.90;2.07;;;19.80;42.50;;;;;;5049122;28;20495;-69
2021/03/22 07:03:54;;;;;;;2.87;1.73;;;19.80;42.60;;;;;;5055982;28;20557;-73
2021/03/22 07:06:21;;;;;;;4.33;1.63;;;19.70;43.20;;;;;;5054630;28;20478;-74
2021/03/22 07:08:48;;;;;;;3.70;1.23;;;19.70;44.60;;;;;;5048046;28;20621;-75
2021/03/22 07:11:16;;;;;;;8.60;2.10;;;19.70;44.90;;;;;;5069368;28;20479;-73
2021/03/22 07:13:55;;;;;;;2.77;1.43;;;19.80;47.10;;;;;;5048088;28;20485;-73
2021/03/22 07:16:23;;;;;;;4.77;2.77;;;19.80;47.00;;;;;;5049648;28;20506;-73
2021/03/22 07:19:14;;;;;;;5.53;2.10;;;19.90;47.40;;;;;;5052045;28;20959;-73
2021/03/22 07:21:49;;;;;;;4.27;1.63;;;19.90;47.60;;;;;;5042034;28;20517;-74
2021/03/22 07:24:18;;;;;;;5.70;1.90;;;19.90;47.60;;;;;;5049118;28;20477;-73
2021/03/22 07:26:55;;;;;;;3.90;1.70;;;19.90;47.70;;;;;;5046460;28;20474;-73
2021/03/22 07:29:30;;;;;;;3.17;1.77;;;20.00;47.90;;;;;;5050930;28;20616;-74
2021/03/22 07:32:01;;;;;;;3.17;2.00;;;20.00;48.10;;;;;;5051793;28;21211;-73
2021/03/22 07:34:36;;;;;;;4.67;1.70;;;20.00;47.80;;;;;;5065948;28;20483;-73
2021/03/22 07:37:08;;;;;;;3.53;2.17;;;20.00;47.30;;;;;;5051512;28;20485;-73
2021/03/22 07:39:36;;;;;;;3.60;1.30;;;20.00;47.00;;;;;;5048706;28;20540;-73
2021/03/22 07:42:24;;;;;;;4.67;2.00;;;20.00;46.70;;;;;;5053969;28;20519;-72
2021/03/22 07:45:14;;;;;;;9.13;2.37;;;19.90;46.50;;;;;;5048134;28;20483;-73
2021/03/22 07:48:00;;;;;;;2.10;1.40;;;19.90;46.60;;;;;;5037647;28;20470;-73
2021/03/22 07:50:28;;;;;;;6.20;2.00;;;19.80;46.40;;;;;;5052120;28;20500;-73
2021/03/22 07:52:55;;;;;;;5.03;2.87;;;19.80;46.50;;;;;;5051540;28;20538;-73
2021/03/22 07:55:32;;;;;;;3.67;2.00;;;19.70;46.70;;;;;;5048873;28;20493;-73
2021/03/22 07:58:01;;;;;;;5.40;1.83;;;19.70;47.00;;;;;;5049400;28;21350;-73
2021/03/22 08:00:33;;;;;;;2.90;1.80;;;19.70;47.40;;;;;;5049978;28;20921;-73
2021/03/22 08:03:08;;;;;;;1.87;1.30;;;19.70;48.20;;;;;;5047284;28;20504;-72
2021/03/22 08:05:41;;;;;;;5.43;1.80;;;19.70;49.00;;;;;;5049018;28;21011;-73
2021/03/22 08:08:09;;;;;;;5.13;1.57;;;19.70;49.40;;;;;;5041002;28;20614;-73
2021/03/22 08:10:43;;;;;;;3.50;1.60;;;19.70;49.60;;;;;;5047577;28;20528;-72
2021/03/22 08:13:27;;;;;;;5.33;2.17;;;19.70;49.10;;;;;;5038627;28;20593;-73
2021/03/22 08:15:59;;;;;;;2.80;1.63;;;19.70;48.80;;;;;;5060011;28;21554;-73
2021/03/22 08:18:28;;;;;;;6.73;2.37;;;19.80;48.90;;;;;;5049943;28;20676;-73
2021/03/22 08:20:59;;;;;;;3.13;1.70;;;19.80;48.30;;;;;;5050508;28;20532;-73
2021/03/22 08:23:27;;;;;;;6.70;1.87;;;19.80;48.50;;;;;;5049956;28;20496;-73
2021/03/22 08:25:54;;;;;;;4.77;1.70;;;19.80;48.20;;;;;;5043345;28;20925;-72
2021/03/22 08:28:23;;;;;;;2.67;1.90;;;19.80;47.90;;;;;;5050631;28;20489;-71
2021/03/22 08:30:54;;;;;;;3.13;1.80;;;19.80;48.00;;;;;;5050299;28;20948;-71
2021/03/22 08:33:25;;;;;;;3.73;1.87;;;19.80;48.10;;;;;;5069300;28;20564;-72
2021/03/22 08:35:56;;;;;;;3.90;1.70;;;19.80;48.50;;;;;;5048701;28;21155;-72
2021/03/22 08:38:30;;;;;;;1.87;1.77;;;19.80;49.00;;;;;;5047293;28;20516;-72
2021/03/22 08:40:57;;;;;;;3.43;2.00;;;19.80;48.90;;;;;;5049241;28;20508;-73
2021/03/22 08:43:27;;;;;;;2.10;1.80;;;19.80;49.00;;;;;;5044141;28;21605;-73
2021/03/22 08:46:07;;;;;;;3.43;1.27;;;19.80;49.00;;;;;;5045356;28;20479;-72
2021/03/22 08:48:34;;;;;;;4.67;1.63;;;19.70;48.30;;;;;;5060623;28;20569;-72
2021/03/22 08:51:01;;;;;;;6.77;2.07;;;19.70;49.60;;;;;;5049881;28;20925;-73
2021/03/22 08:53:33;;;;;;;2.87;1.63;;;19.70;50.40;;;;;;5050183;28;20548;-72
2021/03/22 08:56:01;;;;;;;4.43;1.60;;;19.70;48.80;;;;;;5047224;28;20525;-72
2021/03/22 08:58:28;;;;;;;2.77;2.57;;;19.70;49.10;;;;;;5036830;28;21247;-73
2021/03/22 09:00:55;;;;;;;2.63;1.33;;;19.70;49.50;;;;;;5057482;28;20480;-71
2021/03/22 09:03:29;;;;;;;3.17;1.93;;;19.70;49.70;;;;;;5046437;28;20486;-73
2021/03/22 09:06:10;;;;;;;1.70;1.47;;;19.70;50.40;;;;;;5049690;28;21510;-72
2021/03/22 09:08:37;;;;;;;1.83;1.33;;;19.70;50.10;;;;;;5047378;28;20477;-72
2021/03/22 09:11:14;;;;;;;2.83;1.40;;;19.70;50.30;;;;;;5047942;28;21020;-70
2021/03/22 09:13:44;;;;;;;2.23;2.03;;;19.70;50.10;;;;;;5037742;28;21051;-71
2021/03/22 09:16:38;;;;;;;1.80;1.67;;;19.70;50.40;;;;;;5035391;28;20781;-72
2021/03/22 09:19:40;;;;;;;3.43;2.03;;;19.70;49.80;;;;;;5037265;28;20479;-72
2021/03/22 09:22:46;;;;;;;2.50;1.77;;;19.80;50.30;;;;;;5045705;28;20480;-73
2021/03/22 09:25:16;;;;;;;3.93;2.47;;;19.80;50.60;;;;;;5044519;28;20528;-72
2021/03/22 09:27:42;;;;;;;2.20;2.00;;;19.80;49.90;;;;;;5032305;28;21353;-70
2021/03/22 09:30:38;;;;;;;3.40;1.53;;;19.70;50.10;;;;;;5047940;28;20493;-73
2021/03/22 09:33:04;;;;;;;3.20;2.00;;;19.70;50.40;;;;;;5047957;28;20481;-72
2021/03/22 09:36:10;;;;;;;1.43;1.33;;;19.70;50.80;;;;;;5048854;28;20478;-73
2021/03/22 09:38:42;;;;;;;1.40;1.30;;;19.70;50.40;;;;;;5049244;28;21208;-72
2021/03/22 09:41:09;;;;;;;3.20;1.80;;;19.80;50.70;;;;;;5046911;28;20473;-72
2021/03/22 09:44:05;;;;;;;1.73;1.63;;;19.80;50.70;;;;;;5035045;28;20478;-73
2021/03/22 09:46:38;;;;;;;2.33;2.10;;;19.80;51.50;;;;;;5045690;28;20489;-72
2021/03/22 09:49:22;;;;;;;5.13;1.83;;;19.80;51.60;;;;;;5050463;28;20482;-73
2021/03/22 09:51:50;;;;;;;2.10;1.83;;;19.80;51.60;;;;;;5052987;28;21013;-72
2021/03/22 09:54:37;;;;;;;2.50;1.60;;;19.80;51.50;;;;;;5056786;28;20474;-73
2021/03/22 09:57:30;;;;;;;1.57;1.40;;;19.80;51.70;;;;;;5062796;28;26076;-73
2021/03/22 10:00:15;;;;;;;2.90;1.50;;;19.90;51.80;;;;;;5073465;28;20476;-73
2021/03/22 10:02:43;;;;;;;3.13;1.30;;;19.80;52.40;;;;;;5018561;28;20842;-71
2021/03/22 10:05:14;;;;;;;2.40;1.47;;;19.80;52.10;;;;;;5051146;28;20477;-73
2021/03/22 10:07:40;;;;;;;2.10;1.30;;;19.80;52.30;;;;;;5057043;28;20997;-71
2021/03/22 10:10:28;;;;;;;2.40;1.27;;;19.80;52.50;;;;;;5054514;28;20494;-72
2021/03/22 10:12:57;;;;;;;3.43;1.50;;;19.80;52.20;;;;;;5051128;28;20559;-72
2021/03/22 10:15:26;;;;;;;1.20;1.10;;;19.80;52.30;;;;;;5049690;28;20687;-73
2021/03/22 10:17:58;;;;;;;1.67;1.57;;;19.90;52.10;;;;;;5050483;28;20568;-71
2021/03/22 10:20:27;;;;;;;1.97;1.77;;;19.90;51.90;;;;;;5052015;28;20494;-72
2021/03/22 10:22:58;;;;;;;2.20;1.47;;;19.90;51.70;;;;;;5048787;28;21071;-72
2021/03/22 10:25:27;;;;;;;2.87;1.53;;;20.00;51.40;;;;;;5053434;28;20488;-72
2021/03/22 10:28:00;;;;;;;1.93;1.20;;;20.00;51.30;;;;;;5046880;28;20540;-72
2021/03/22 10:30:26;;;;;;;3.53;1.40;;;20.00;51.60;;;;;;5041480;28;20551;-72
2021/03/22 10:32:56;;;;;;;2.03;1.13;;;20.10;51.50;;;;;;5053478;28;20513;-71
2021/03/22 10:35:22;;;;;;;1.40;1.30;;;20.10;51.60;;;;;;5054692;28;21295;-72
2021/03/22 10:37:50;;;;;;;1.47;1.37;;;20.00;51.60;;;;;;5050323;28;20494;-74
2021/03/22 10:40:22;;;;;;;2.47;1.37;;;20.00;51.70;;;;;;5051105;28;21005;-71
2021/03/22 10:42:48;;;;;;;2.10;1.10;;;20.00;51.50;;;;;;5049774;28;20515;-72
2021/03/22 10:45:30;;;;;;;2.67;1.63;;;20.00;51.30;;;;;;5049447;28;20533;-72
2021/03/22 10:47:57;;;;;;;1.30;1.20;;;20.10;51.30;;;;;;5064910;28;20498;-72
2021/03/22 10:50:26;;;;;;;1.97;1.40;;;20.10;51.20;;;;;;5049893;28;20502;-72
2021/03/22 10:53:06;;;;;;;1.93;1.47;;;20.10;51.10;;;;;;5052072;28;20497;-71
2021/03/22 10:55:32;;;;;;;2.70;1.40;;;20.10;50.90;;;;;;5047597;28;20487;-71
2021/03/22 10:57:58;;;;;;;2.40;1.50;;;20.10;51.00;;;;;;5046553;28;20489;-72
2021/03/22 11:00:29;;;;;;;1.37;1.10;;;20.10;51.00;;;;;;5051485;28;20500;-72
2021/03/22 11:02:55;;;;;;;1.53;1.43;;;20.10;51.20;;;;;;5051768;28;20481;-72
2021/03/22 11:05:27;;;;;;;2.13;1.90;;;20.10;51.30;;;;;;5052947;28;20537;-72
2021/03/22 11:07:54;;;;;;;1.30;1.20;;;20.10;51.30;;;;;;5037057;28;20493;-72
2021/03/22 11:10:21;;;;;;;2.07;1.53;;;20.00;51.20;;;;;;5048787;28;20474;-73
2021/03/22 11:12:48;;;;;;;2.80;1.60;;;20.00;51.30;;;;;;5038628;28;20996;-72
2021/03/22 11:15:17;;;;;;;3.47;1.83;;;20.00;51.10;;;;;;5050906;28;20993;-72
2021/03/22 11:17:44;;;;;;;1.90;1.37;;;20.00;50.90;;;;;;5032002;28;20614;-72
2021/03/22 11:20:12;;;;;;;1.67;1.57;;;20.00;50.90;;;;;;5050508;28;20487;-72
2021/03/22 11:22:39;;;;;;;1.20;1.10;;;20.00;50.90;;;;;;5051556;28;20489;-72
2021/03/22 11:25:36;;;;;;;1.33;1.20;;;20.10;50.80;;;;;;5051101;28;20481;-72
2021/03/22 11:28:04;;;;;;;1.40;1.17;;;20.10;51.00;;;;;;5038172;28;20479;-71
2021/03/22 11:30:33;;;;;;;1.40;1.30;;;20.00;51.70;;;;;;5045658;28;20486;-72
2021/03/22 11:33:01;;;;;;;1.20;1.10;;;20.00;51.70;;;;;;5048253;28;20577;-72
2021/03/22 11:35:28;;;;;;;1.50;1.40;;;20.00;51.90;;;;;;5037894;28;20525;-72
2021/03/22 11:37:56;;;;;;;2.17;1.27;;;20.00;52.10;;;;;;5045839;28;20477;-72
2021/03/22 11:40:24;;;;;;;1.47;1.27;;;19.90;52.10;;;;;;5051331;28;20501;-72
2021/03/22 11:42:56;;;;;;;1.33;1.23;;;19.90;52.50;;;;;;5051098;28;20492;-71
2021/03/22 11:45:32;;;;;;;2.33;1.80;;;19.90;51.70;;;;;;5040704;28;20482;-70
2021/03/22 11:47:59;;;;;;;2.70;1.30;;;19.90;52.30;;;;;;5048518;28;20498;-72
2021/03/22 11:50:32;;;;;;;1.40;1.40;;;20.00;51.60;;;;;;5036691;28;20481;-72
2021/03/22 11:53:06;;;;;;;5.53;2.00;;;20.00;51.70;;;;;;5048137;28;20474;-71
2021/03/22 11:55:35;;;;;;;2.00;1.80;;;20.00;51.40;;;;;;5047328;28;20481;-72
2021/03/22 11:58:01;;;;;;;2.80;1.27;;;20.10;51.00;;;;;;5049323;28;20531;-72
2021/03/22 12:00:28;;;;;;;1.30;1.30;;;20.10;51.20;;;;;;5060130;28;20492;-72
2021/03/22 12:02:58;;;;;;;1.20;1.20;;;20.00;51.00;;;;;;5053274;28;20491;-72
2021/03/22 12:05:30;;;;;;;1.17;1.17;;;20.00;51.30;;;;;;5052703;28;20504;-71
2021/03/22 12:07:56;;;;;;;1.70;1.60;;;20.00;51.10;;;;;;5048675;28;20539;-72
2021/03/22 12:10:27;;;;;;;1.20;1.20;;;20.00;51.10;;;;;;5049310;28;20493;-71
2021/03/22 12:12:53;;;;;;;2.23;1.60;;;19.90;51.30;;;;;;5048986;28;20491;-71
2021/03/22 12:15:23;;;;;;;2.43;2.00;;;20.00;51.60;;;;;;5048402;28;20489;-71
2021/03/22 12:17:54;;;;;;;1.13;1.03;;;19.90;51.10;;;;;;5035146;28;21550;-71
2021/03/22 12:20:22;;;;;;;4.30;1.53;;;19.90;51.50;;;;;;5043327;28;20472;-71
2021/03/22 12:22:49;;;;;;;2.10;1.90;;;19.90;51.60;;;;;;5048109;28;20486;-71
2021/03/22 12:25:17;;;;;;;1.83;1.70;;;19.90;51.70;;;;;;5051388;28;20489;-71
2021/03/22 12:27:43;;;;;;;2.53;1.27;;;19.90;51.40;;;;;;5037299;28;20502;-71
2021/03/22 12:30:10;;;;;;;1.80;1.43;;;19.90;51.50;;;;;;5045451;28;20486;-70
2021/03/22 12:32:37;;;;;;;1.17;1.00;;;19.90;51.60;;;;;;5047779;28;20567;-70
2021/03/22 12:35:04;;;;;;;2.20;1.53;;;19.90;51.70;;;;;;5055473;28;20486;-71
2021/03/22 12:37:31;;;;;;;1.37;1.27;;;19.90;51.60;;;;;;5047518;28;20482;-76
2021/03/22 12:39:58;;;;;;;1.30;1.20;;;19.90;51.10;;;;;;5050875;28;20481;-72
2021/03/22 12:42:25;;;;;;;2.43;1.70;;;19.90;50.30;;;;;;5051168;28;20494;-71
2021/03/22 12:44:51;;;;;;;1.40;1.30;;;19.90;51.40;;;;;;5053865;28;20907;-71
2021/03/22 12:47:19;;;;;;;1.50;1.40;;;19.90;50.90;;;;;;5046625;28;20473;-71
2021/03/22 12:49:45;;;;;;;2.10;1.43;;;19.90;51.00;;;;;;5052565;28;20895;-71
2021/03/22 12:52:11;;;;;;;1.13;1.13;;;20.00;51.40;;;;;;5045473;28;20486;-72
2021/03/22 12:54:37;;;;;;;1.83;1.70;;;20.00;51.40;;;;;;5048744;28;20488;-71
2021/03/22 12:57:05;;;;;;;2.10;1.27;;;20.00;50.80;;;;;;5044687;28;20520;-71
2021/03/22 12:59:33;;;;;;;1.17;1.07;;;20.00;50.80;;;;;;5047039;28;21016;-71